sensor_id;sensor_type;location;lat;lon;timestamp;pressure;altitude;pressure_sealevel;temperature;humidity
71642;BME280;60657;50.122;14.468;2022-12-18T00:00:24;99787.77297792282;;;-3.508430609597923;80.89250019073778
71642;BME280;60657;50.122;14.468;2022-12-18T00:03:33;99798.15614036637;;;-3.5938811322194226;81.1232928969253
71642;BME280;60657;50.122;14.468;2022-12-18T00:06:40;99796.45731819073;;;-3.5618371862363603;81.15762569619288
71642;BME280;60657;50.122;14.468;2022-12-18T00:09:48;99794.3484564471;;;-3.5351338979171416;81.01075761043717
71642;BME280;60657;50.122;14.468;2022-12-18T00:12:55;99794.1557598916;;;-3.4470130464637236;80.96688792248416
71642;BME280;60657;50.122;14.468;2022-12-18T00:16:03;99795.52647251608;;;-3.4763866636148606;81.73174639505608
71642;BME280;60657;50.122;14.468;2022-12-18T00:19:12;99796.56725088427;;;-3.5725185015640477;81.17860685130083
71642;BME280;60657;50.122;14.468;2022-12-18T00:22:21;99792.54000455943;;;-3.545815213244829;80.52628366521706
71642;BME280;60657;50.122;14.468;2022-12-18T00:25:29;99792.23853224168;;;-3.4763866636148606;80.43663691157397
71642;BME280;60657;50.122;14.468;2022-12-18T00:28:36;99804.32181273159;;;-3.529793240253298;79.13771267261768
71642;BME280;60657;50.122;14.468;2022-12-18T00:31:43;99820.32162057997;;;-3.5484855420767545;79.25597009231709
71642;BME280;60657;50.122;14.468;2022-12-18T00:34:51;99822.83508220788;;;-3.692683299000535;78.14206149385825
71642;BME280;60657;50.122;14.468;2022-12-18T00:37:59;99828.11606545704;;;-3.7380788891432033;78.45487144274053
71642;BME280;60657;50.122;14.468;2022-12-18T00:41:09;99834.99598278565;;;-3.9971007858396277;79.20065613794156
71642;BME280;60657;50.122;14.468;2022-12-18T00:44:18;99839.76418433548;;;-4.424353398947126;80.55107957579919
71642;BME280;60657;50.122;14.468;2022-12-18T00:47:26;99838.063673755;;;-4.4724193179217195;81.74509803921569
71642;BME280;60657;50.122;14.468;2022-12-18T00:50:34;99849.58082849551;;;-4.394979781795989;81.5505455100328
71642;BME280;60657;50.122;14.468;2022-12-18T00:53:41;99838.87464434929;;;-4.451056687266345;80.84672312504769
71642;BME280;60657;50.122;14.468;2022-12-18T00:56:48;99857.85238052956;;;-4.4056610971236765;79.65461203936827
71642;BME280;60657;50.122;14.468;2022-12-18T00:59:56;99859.04977646824;;;-4.38696879530022;79.37613488975357
71642;BME280;60657;50.122;14.468;2022-12-18T01:03:08;99872.06110364803;;;-4.6406500343328005;79.33607995727473
71642;BME280;60657;50.122;14.468;2022-12-18T01:06:21;99862.67594945;;;-4.576562142366676;79.1205462729839
71642;BME280;60657;50.122;14.468;2022-12-18T01:09:28;99869.88896305353;;;-4.6406500343328005;79.19684138246738
71642;BME280;60657;50.122;14.468;2022-12-18T01:12:36;99861.70831464758;;;-4.555199511711301;79.94071869993134
71642;BME280;60657;50.122;14.468;2022-12-18T01:15:47;99867.95176544544;;;-4.6700236514839375;79.83390554665446
71642;BME280;60657;50.122;14.468;2022-12-18T01:18:55;99880.61597429389;;;-4.678034637979707;80.42519264515144
71642;BME280;60657;50.122;14.468;2022-12-18T01:22:03;99875.64914066346;;;-4.7795071335927375;80.14290074006256
71642;BME280;60657;50.122;14.468;2022-12-18T01:25:10;99884.11426098597;;;-4.7261005569543;79.98840314335851
71642;BME280;60657;50.122;14.468;2022-12-18T01:28:18;99893.96904324397;;;-4.715419241626613;79.71374074921798
71642;BME280;60657;50.122;14.468;2022-12-18T01:31:26;99883.64187174628;;;-4.752803845273519;80.2993057145037
71642;BME280;60657;50.122;14.468;2022-12-18T01:34:35;99888.27282602782;;;-4.782177462424656;80.78187228198672
71642;BME280;60657;50.122;14.468;2022-12-18T01:37:43;99889.75541215595;;;-4.899671931029218;80.63881895170519
71642;BME280;60657;50.122;14.468;2022-12-18T01:40:56;99888.91894395715;;;-4.9771114671549554;81.45517662317846
71642;BME280;60657;50.122;14.468;2022-12-18T01:44:46;99897.9292878027;;;-5.075913633936068;82.39932860303655
71642;BME280;60657;50.122;14.468;2022-12-18T01:48:02;99896.91954080343;;;-4.8676279850461555;82.14946211947814
71642;BME280;60657;50.122;14.468;2022-12-18T01:51:14;99903.9822445791;;;-4.856946669718468;82.36118104829481
71642;BME280;60657;50.122;14.468;2022-12-18T01:54:22;99892.06944645826;;;-4.907682917524987;82.64728770885786
71642;BME280;60657;50.122;14.468;2022-12-18T01:57:29;99883.5440871657;;;-4.8462653543907805;82.46227206836042
71642;BME280;60657;50.122;14.468;2022-12-18T02:00:37;99895.74464829813;;;-5.073243305104143;81.65926604104676
71642;BME280;60657;50.122;14.468;2022-12-18T02:03:45;99889.53016394278;;;-4.93171587701228;81.96063172350652
71642;BME280;60657;50.122;14.468;2022-12-18T02:06:54;99907.9079067532;;;-5.16937514305333;82.07888914320593
71642;BME280;60657;50.122;14.468;2022-12-18T02:10:12;99909.84408961266;;;-5.030518043793393;82.15327687495231
71642;BME280;60657;50.122;14.468;2022-12-18T02:13:28;99906.5495027842;;;-4.971770809491112;81.71076523994812
71642;BME280;60657;50.122;14.468;2022-12-18T02:16:47;99910.82265319533;;;-5.105287251087205;82.37071793698024
71642;BME280;60657;50.122;14.468;2022-12-18T02:20:04;99921.5263066348;;;-5.268177309834442;82.23147936217289
71642;BME280;60657;50.122;14.468;2022-12-18T02:23:24;99926.14873834877;;;-5.190737773708705;82.88570992599374
71642;BME280;60657;50.122;14.468;2022-12-18T02:26:50;99934.04711858314;;;-5.2708476386663605;82.5690852216373
71642;BME280;60657;50.122;14.468;2022-12-18T02:30:03;99928.33234291356;;;-5.308232242313267;84.4554818036164
71642;BME280;60657;50.122;14.468;2022-12-18T02:33:14;99934.66218208654;;;-5.073243305104143;83.61814297703518
71642;BME280;60657;50.122;14.468;2022-12-18T02:36:25;99934.90391576594;;;-5.164034485389486;83.68490119783321
71642;BME280;60657;50.122;14.468;2022-12-18T02:39:37;99943.77387257511;;;-5.140001525902193;83.14129854276341
71642;BME280;60657;50.122;14.468;2022-12-18T02:42:48;99939.02386219578;;;-5.252155336842911;83.8355840390631
71642;BME280;60657;50.122;14.468;2022-12-18T02:45:57;99937.69025101613;;;-5.276188296330204;83.49225604638742
71642;BME280;60657;50.122;14.468;2022-12-18T02:49:11;99934.98427146138;;;-5.428397039749754;84.68245975432974
71642;BME280;60657;50.122;14.468;2022-12-18T02:52:31;99928.08705389658;;;-5.23613336385138;84.38300144960708
71642;BME280;60657;50.122;14.468;2022-12-18T02:55:54;99925.41813626705;;;-5.049210345616849;83.90615701533531
71642;BME280;60657;50.122;14.468;2022-12-18T02:59:14;99935.02600031195;;;-5.051880674448768;83.65438315403982
71642;BME280;60657;50.122;14.468;2022-12-18T03:02:27;99923.59021932796;;;-4.872968642709999;83.52849622339208
71642;BME280;60657;50.122;14.468;2022-12-18T03:05:44;99926.93990914345;;;-4.613946746013582;82.74074921797512
71642;BME280;60657;50.122;14.468;2022-12-18T03:09:01;99932.63748218892;;;-4.520485236896313;82.20859082932785
71642;BME280;60657;50.122;14.468;2022-12-18T03:12:15;99931.55013251003;;;-4.528496223392082;82.14373998626688
71642;BME280;60657;50.122;14.468;2022-12-18T03:15:31;99948.75849326447;;;-4.672693980315863;82.81513694972152
71642;BME280;60657;50.122;14.468;2022-12-18T03:18:45;99950.10013371267;;;-4.6406500343328005;82.98680094605936
71642;BME280;60657;50.122;14.468;2022-12-18T03:21:58;99955.56906144529;;;-4.555199511711301;81.38651102464333
71642;BME280;60657;50.122;14.468;2022-12-18T03:25:11;99948.87867434525;;;-4.579232471198594;81.24155031662471
71642;BME280;60657;50.122;14.468;2022-12-18T03:28:23;99941.94820549422;;;-4.6620126649881755;81.92248416876478
71642;BME280;60657;50.122;14.468;2022-12-18T03:31:33;99952.17615298029;;;-4.790188448920425;83.15846494239719
71642;BME280;60657;50.122;14.468;2022-12-18T03:34:40;99945.36097975858;;;-4.747463187609675;83.66964217593652
71642;BME280;60657;50.122;14.468;2022-12-18T03:37:54;99947.7869250156;;;-4.592584115358207;83.41977569237812
71642;BME280;60657;50.122;14.468;2022-12-18T03:41:03;99950.22053774752;;;-4.619287403677426;82.86854352635996
71642;BME280;60657;50.122;14.468;2022-12-18T03:44:23;99955.57736066896;;;-4.621957732509344;82.44510566872664
71642;BME280;60657;50.122;14.468;2022-12-18T03:47:41;99963.36066964765;;;-4.584573128862438;83.1870756084535
71642;BME280;60657;50.122;14.468;2022-12-18T03:51:01;99953.38504560695;;;-4.613946746013582;83.43121995880064
71642;BME280;60657;50.122;14.468;2022-12-18T03:54:17;99947.86111402969;;;-4.392309452964064;82.85709925993744
71642;BME280;60657;50.122;14.468;2022-12-18T03:57:28;99952.13626386314;;;-4.402990768291751;82.56717784390021
71642;BME280;60657;50.122;14.468;2022-12-18T04:00:39;99966.01165136485;;;-4.3549248493171575;82.38216220340276
71642;BME280;60657;50.122;14.468;2022-12-18T04:03:49;99971.98519307416;;;-4.416342412451364;81.65926604104676
71642;BME280;60657;50.122;14.468;2022-12-18T04:06:59;99966.39652460288;;;-4.488441290913251;81.2854200045777
71642;BME280;60657;50.122;14.468;2022-12-18T04:10:09;99978.32531986025;;;-4.53917753871977;81.36362249179828
71642;BME280;60657;50.122;14.468;2022-12-18T04:13:23;99982.83035237243;;;-4.643320363164719;81.23392080567636
71642;BME280;60657;50.122;14.468;2022-12-18T04:16:31;99984.2928023366;;;-4.731441214618144;81.06797894254979
71642;BME280;60657;50.122;14.468;2022-12-18T04:19:38;99983.80080213207;;;-4.891660944533456;81.20721751735714
71642;BME280;60657;50.122;14.468;2022-12-18T04:22:47;99975.8898683307;;;-5.009155413138018;81.24917982757306
71642;BME280;60657;50.122;14.468;2022-12-18T04:25:54;99995.95383683823;;;-4.982452124818799;81.42275120164797
71642;BME280;60657;50.122;14.468;2022-12-18T04:29:02;99994.97847962868;;;-4.953078507667655;81.4189364461738
71642;BME280;60657;50.122;14.468;2022-12-18T04:32:09;100001.7937838225;;;-4.9557488364995805;81.60776684214542
71642;BME280;60657;50.122;14.468;2022-12-18T04:35:17;100009.09081594863;;;-4.9771114671549554;82.06172274357213
71642;BME280;60657;50.122;14.468;2022-12-18T04:38:24;100004.34959543764;;;-4.907682917524987;81.76607919432364
71642;BME280;60657;50.122;14.468;2022-12-18T04:41:32;100001.44327461167;;;-4.816891737239644;81.51812008850233
71642;BME280;60657;50.122;14.468;2022-12-18T04:44:39;100001.32563883423;;;-4.774166475928894;81.44182497901885
71642;BME280;60657;50.122;14.468;2022-12-18T04:47:47;99992.80962000739;;;-4.718089570458531;81.47043564507516
71642;BME280;60657;50.122;14.468;2022-12-18T04:50:54;100001.56974391812;;;-4.696726939803156;81.20721751735714
71642;BME280;60657;50.122;14.468;2022-12-18T04:54:02;99998.0405923169;;;-4.715419241626613;81.25871671625849
71642;BME280;60657;50.122;14.468;2022-12-18T04:57:10;100000.47384072271;;;-4.723430228122375;81.31212329289693
71642;BME280;60657;50.122;14.468;2022-12-18T05:00:18;99998.65000706394;;;-4.632639047837031;81.10040436408026
71642;BME280;60657;50.122;14.468;2022-12-18T05:03:27;100006.80243456585;;;-4.6112764171816565;81.0794232089723
71642;BME280;60657;50.122;14.468;2022-12-18T05:06:36;100008.14099683653;;;-4.597924773022051;81.15953307392996
71642;BME280;60657;50.122;14.468;2022-12-18T05:09:43;100004.85213488832;;;-4.499122606240938;80.7418173495079
71642;BME280;60657;50.122;14.468;2022-12-18T05:12:51;99997.5495976465;;;-4.512474250400551;80.99549858854047
71642;BME280;60657;50.122;14.468;2022-12-18T05:15:59;100007.28631804948;;;-4.4724193179217195;80.96116578927291
71642;BME280;60657;50.122;14.468;2022-12-18T05:19:06;100024.44701691296;;;-4.421683070115208;80.8295567254139
71642;BME280;60657;50.122;14.468;2022-12-18T05:22:14;100023.83765634218;;;-4.475089646753645;81.07560845349813
71642;BME280;60657;50.122;14.468;2022-12-18T05:25:22;100033.6964466146;;;-4.400320439459833;80.84481574731059
71642;BME280;60657;50.122;14.468;2022-12-18T05:28:31;100031.62546682185;;;-4.389639124132145;80.84863050278477
71642;BME280;60657;50.122;14.468;2022-12-18T05:31:40;100033.8177299305;;;-4.370946822308689;80.75326161593041
71642;BME280;60657;50.122;14.468;2022-12-18T05:34:48;100029.92441850743;;;-4.5231555657282385;81.2434576943618
71642;BME280;60657;50.122;14.468;2022-12-18T05:37:55;100030.1674355165;;;-4.491111619745176;81.46280613412681
71642;BME280;60657;50.122;14.468;2022-12-18T05:41:03;100040.99971354044;;;-4.427023727779051;81.4341954680705
71642;BME280;60657;50.122;14.468;2022-12-18T05:44:12;100024.81299353178;;;-4.501792935072864;81.6974135957885
71642;BME280;60657;50.122;14.468;2022-12-18T05:47:19;100040.51309237657;;;-4.512474250400551;81.92629892423895
71642;BME280;60657;50.122;14.468;2022-12-18T05:50:26;100044.65133891041;;;-4.4724193179217195;81.99687190051118
71642;BME280;60657;50.122;14.468;2022-12-18T05:53:34;100047.08557478723;;;-4.499122606240938;82.25436789501794
71642;BME280;60657;50.122;14.468;2022-12-18T05:56:43;100041.48686335312;;;-4.480430304417489;82.24483100633249
71642;BME280;60657;50.122;14.468;2022-12-18T05:59:51;100049.15353572219;;;-4.515144579232469;82.33066300450142
71642;BME280;60657;50.122;14.468;2022-12-18T06:02:58;100060.34914542174;;;-4.536507209887844;82.74265659571222
71642;BME280;60657;50.122;14.468;2022-12-18T06:06:12;100059.85816409174;;;-4.6112764171816565;83.01541161211567
71642;BME280;60657;50.122;14.468;2022-12-18T06:09:21;100062.66045770221;;;-4.587243457694363;83.22713054093232
71642;BME280;60657;50.122;14.468;2022-12-18T06:12:29;100069.60100057597;;;-4.584573128862438;82.75410086213473
71642;BME280;60657;50.122;14.468;2022-12-18T06:15:36;100067.52834227163;;;-4.576562142366676;82.80941481651026
71642;BME280;60657;50.122;14.468;2022-12-18T06:18:44;100065.82382754053;;;-4.57389181353475;82.65491721980621
71642;BME280;60657;50.122;14.468;2022-12-18T06:21:52;100065.46610886545;;;-4.491111619745176;82.51758602273594
71642;BME280;60657;50.122;14.468;2022-12-18T06:25:00;100073.25500182105;;;-4.53917753871977;82.61486228732738
71642;BME280;60657;50.122;14.468;2022-12-18T06:28:07;100076.54163413872;;;-4.491111619745176;82.69878690775921
71642;BME280;60657;50.122;14.468;2022-12-18T06:31:15;100084.08301242061;;;-4.5231555657282385;83.2614633401999
71642;BME280;60657;50.122;14.468;2022-12-18T06:34:22;100078.59929424332;;;-4.57389181353475;83.62195773250934
71642;BME280;60657;50.122;14.468;2022-12-18T06:37:30;100076.05639149784;;;-4.448386358434426;83.38544289311055
71642;BME280;60657;50.122;14.468;2022-12-18T06:40:38;100095.52440447979;;;-4.501792935072864;83.29579613946746
71642;BME280;60657;50.122;14.468;2022-12-18T06:43:46;100097.96726383688;;;-4.448386358434426;83.16037232013429
71642;BME280;60657;50.122;14.468;2022-12-18T06:46:54;100100.27896827189;;;-4.480430304417489;83.14129854276341
71642;BME280;60657;50.122;14.468;2022-12-18T06:50:02;100115.49193901825;;;-4.421683070115208;83.56473640039674
71642;BME280;60657;50.122;14.468;2022-12-18T06:53:10;100109.63443328548;;;-4.6112764171816565;83.62005035477226
71642;BME280;60657;50.122;14.468;2022-12-18T06:56:18;100110.96765137685;;;-4.637979705500875;83.8489356832227
71642;BME280;60657;50.122;14.468;2022-12-18T06:59:25;100123.13670948846;;;-4.645990691996644;84.34676127260242
71642;BME280;60657;50.122;14.468;2022-12-18T07:02:33;100125.09085226401;;;-4.605935759517813;84.4821850919356
71642;BME280;60657;50.122;14.468;2022-12-18T07:05:41;100126.90232944053;;;-4.621957732509344;84.91515983825437
71642;BME280;60657;50.122;14.468;2022-12-18T07:08:49;100127.4004848832;;;-4.557869840543219;84.77973601892118
71642;BME280;60657;50.122;14.468;2022-12-18T07:12:03;100128.50184360135;;;-4.53917753871977;84.82551308461127
71642;BME280;60657;50.122;14.468;2022-12-18T07:15:15;100139.54837635935;;;-4.691386282139312;85.01052872510873
71642;BME280;60657;50.122;14.468;2022-12-18T07:18:23;100145.36805009398;;;-4.742122529945831;85.35576409552148
71642;BME280;60657;50.122;14.468;2022-12-18T07:21:31;100140.15071931972;;;-4.696726939803156;85.26230258640422
71642;BME280;60657;50.122;14.468;2022-12-18T07:24:38;100139.61991689035;;;-4.806210421911956;86.07866025787747
71642;BME280;60657;50.122;14.468;2022-12-18T07:27:46;100148.62456244037;;;-4.8115510795758;86.07866025787747
71642;BME280;60657;50.122;14.468;2022-12-18T07:30:54;100156.04970669796;;;-4.816891737239644;85.89173723964294
71642;BME280;60657;50.122;14.468;2022-12-18T07:34:01;100159.11437123384;;;-4.7795071335927375;85.85740444037538
71642;BME280;60657;50.122;14.468;2022-12-18T07:37:09;100176.11250775824;;;-4.835584039063093;86.04242008087282
71642;BME280;60657;50.122;14.468;2022-12-18T07:40:17;100169.1943768106;;;-4.822232394903487;86.27130540932326
71642;BME280;60657;50.122;14.468;2022-12-18T07:43:24;100172.16367981017;;;-4.656672007324332;85.61135271229114
71642;BME280;60657;50.122;14.468;2022-12-18T07:46:32;100179.2123415514;;;-4.704737926298925;85.57129777981231
71642;BME280;60657;50.122;14.468;2022-12-18T07:49:40;100182.84674127297;;;-4.763485160601206;86.00808728160526
71642;BME280;60657;50.122;14.468;2022-12-18T07:52:47;100190.87336657339;;;-4.790188448920425;85.49500267032883
71642;BME280;60657;50.122;14.468;2022-12-18T07:55:55;100195.06451633663;;;-4.953078507667655;85.45113298237582
71642;BME280;60657;50.122;14.468;2022-12-18T07:59:03;100197.83832510716;;;-4.963759822995343;85.39391165026322
71642;BME280;60657;50.122;14.468;2022-12-18T08:02:11;100200.01398553028;;;-4.966430151827268;85.09636072327764
71642;BME280;60657;50.122;14.468;2022-12-18T08:05:18;100209.35681492793;;;-5.070572976272224;85.03723201342794
71642;BME280;60657;50.122;14.468;2022-12-18T08:08:26;100204.10572454774;;;-5.0652323186083805;84.61760891126879
71642;BME280;60657;50.122;14.468;2022-12-18T08:11:34;100198.0009805731;;;-5.140001525902193;84.51842526894026
71642;BME280;60657;50.122;14.468;2022-12-18T08:14:46;100196.88880659066;;;-5.254825665674829;84.32005798428321
71642;BME280;60657;50.122;14.468;2022-12-18T08:17:56;100195.69829205751;;;-5.15068284122988;84.20752269779507
71642;BME280;60657;50.122;14.468;2022-12-18T08:21:07;100203.68510281046;;;-4.939726863508049;83.72877088578622
71642;BME280;60657;50.122;14.468;2022-12-18T08:24:16;100194.4241269148;;;-5.011825741969943;83.60669871061265
71642;BME280;60657;50.122;14.468;2022-12-18T08:27:24;100201.80271087881;;;-5.08392462043183;83.45983062485695
71642;BME280;60657;50.122;14.468;2022-12-18T08:30:31;100191.99178042749;;;-4.9771114671549554;83.28816662851911
71642;BME280;60657;50.122;14.468;2022-12-18T08:33:39;100189.21796872238;;;-4.9557488364995805;83.05355916685741
71642;BME280;60657;50.122;14.468;2022-12-18T08:36:48;100207.35586586702;;;-4.923704890516518;82.93148699168383
71642;BME280;60657;50.122;14.468;2022-12-18T08:39:55;100203.34401859027;;;-4.9263752193484365;83.05355916685741
71642;BME280;60657;50.122;14.468;2022-12-18T08:43:03;100212.47754461481;;;-4.923704890516518;82.98870832379644
71642;BME280;60657;50.122;14.468;2022-12-18T08:46:11;100214.05672851512;;;-4.9771114671549554;82.91050583657588
71642;BME280;60657;50.122;14.468;2022-12-18T08:49:20;100209.31907572052;;;-4.891660944533456;82.76363775082017
71642;BME280;60657;50.122;14.468;2022-12-18T08:52:28;100201.03916930368;;;-4.85427634088655;82.8761730373083
71642;BME280;60657;50.122;14.468;2022-12-18T08:55:35;100213.62533470106;;;-5.025177386129549;83.24429694056612
71642;BME280;60657;50.122;14.468;2022-12-18T08:58:43;100208.24508978805;;;-5.043869687953006;83.33775844968338
71642;BME280;60657;50.122;14.468;2022-12-18T09:01:53;100206.92466879591;;;-5.011825741969943;83.34348058289464
71642;BME280;60657;50.122;14.468;2022-12-18T09:05:02;100213.15798057588;;;-4.987792782482643;83.47318226901656
71642;BME280;60657;50.122;14.468;2022-12-18T09:08:10;100211.23938976138;;;-4.905012588693062;83.31105516136415
71642;BME280;60657;50.122;14.468;2022-12-18T09:11:20;100210.42834529156;;;-4.835584039063093;83.0402075226978
71642;BME280;60657;50.122;14.468;2022-12-18T09:14:29;100207.01403788627;;;-4.878309300373843;83.25574120698863
71642;BME280;60657;50.122;14.468;2022-12-18T09:17:40;100192.67127320167;;;-4.902342259861143;83.18326085297933
71642;BME280;60657;50.122;14.468;2022-12-18T09:20:47;100204.79508590797;;;-4.88899061570153;83.3930724040589
71642;BME280;60657;50.122;14.468;2022-12-18T09:23:55;100202.56749216447;;;-4.774166475928894;83.38735027084763
71642;BME280;60657;50.122;14.468;2022-12-18T09:27:03;100206.45390719254;;;-4.739452201113906;83.24429694056612
71642;BME280;60657;50.122;14.468;2022-12-18T09:30:11;100208.63285802757;;;-4.752803845273519;83.18898298619058
71642;BME280;60657;50.122;14.468;2022-12-18T09:33:19;100206.16047203267;;;-4.795529106584269;83.15083543144884
71642;BME280;60657;50.122;14.468;2022-12-18T09:36:29;100205.34606177695;;;-4.7795071335927375;83.0249485008011
71642;BME280;60657;50.122;14.468;2022-12-18T09:39:37;100222.46528081968;;;-4.832913710231175;83.14702067597467
71642;BME280;60657;50.122;14.468;2022-12-18T09:42:45;100221.86770039274;;;-4.74479285877775;83.06691081101701
71642;BME280;60657;50.122;14.468;2022-12-18T09:46:05;100237.5310803808;;;-4.85427634088655;83.61051346608683
71642;BME280;60657;50.122;14.468;2022-12-18T09:49:17;100237.44810045909;;;-4.752803845273519;83.26337071793698
71642;BME280;60657;50.122;14.468;2022-12-18T09:52:32;100240.77739403435;;;-4.656672007324332;82.93339436942092
71642;BME280;60657;50.122;14.468;2022-12-18T09:55:46;100247.86287560791;;;-4.667353322652019;83.19661249713893
71642;BME280;60657;50.122;14.468;2022-12-18T09:58:57;100244.7389169907;;;-4.699397268635082;82.97917143511101
71642;BME280;60657;50.122;14.468;2022-12-18T10:02:12;100255.45675271495;;;-4.57389181353475;82.8761730373083
71642;BME280;60657;50.122;14.468;2022-12-18T10:05:25;100254.85684089316;;;-4.445716029602501;82.65110246433204
71642;BME280;60657;50.122;14.468;2022-12-18T10:08:45;100251.31490926645;;;-4.427023727779051;82.2143129625391
71642;BME280;60657;50.122;14.468;2022-12-18T10:12:04;100243.50426781498;;;-4.584573128862438;82.56717784390021
71642;BME280;60657;50.122;14.468;2022-12-18T10:15:24;100243.56872133334;;;-4.3549248493171575;82.43366140230411
71642;BME280;60657;50.122;14.468;2022-12-18T10:18:50;100238.22284759335;;;-4.269474326695658;82.03501945525292
71642;BME280;60657;50.122;14.468;2022-12-18T10:22:15;100243.56872133334;;;-4.400320439459833;82.23147936217289
71642;BME280;60657;50.122;14.468;2022-12-18T10:25:37;100236.51576176862;;;-4.328221560997939;81.91103990234225
71642;BME280;60657;50.122;14.468;2022-12-18T10:29:01;100216.45341497073;;;-4.22407873655299;81.76417181658655
71642;BME280;60657;50.122;14.468;2022-12-18T10:32:10;100216.57789062962;;;-4.135957885099565;81.67071030746929
71642;BME280;60657;50.122;14.468;2022-12-18T10:35:24;100210.95962737704;;;-4.3255512321660206;81.74509803921569
71642;BME280;60657;50.122;14.468;2022-12-18T10:38:33;100197.43223302784;;;-4.3255512321660206;81.6249332417792
71642;BME280;60657;50.122;14.468;2022-12-18T10:41:41;100203.7342524415;;;-4.443045700770583;82.13420309758145
71642;BME280;60657;50.122;14.468;2022-12-18T10:44:52;100191.10547270127;;;-4.336232547493708;81.66498817425803
71642;BME280;60657;50.122;14.468;2022-12-18T10:48:17;100191.35444554455;;;-4.285496299687189;81.993057145037
71642;BME280;60657;50.122;14.468;2022-12-18T10:51:29;100180.51273397064;;;-4.3255512321660206;81.96444647898069
71642;BME280;60657;50.122;14.468;2022-12-18T10:54:40;100174.66565235572;;;-4.309529259174489;81.9205767910277
71642;BME280;60657;50.122;14.468;2022-12-18T10:57:56;100181.19831811935;;;-4.475089646753645;81.949187457084
71642;BME280;60657;50.122;14.468;2022-12-18T11:01:23;100166.13547934176;;;-4.437705043106739;82.43366140230411
71642;BME280;60657;50.122;14.468;2022-12-18T11:04:32;100162.73951422333;;;-4.330891889829864;81.83665217059587
71642;BME280;60657;50.122;14.468;2022-12-18T11:07:47;100166.15124908164;;;-4.328221560997939;81.70695048447395
71642;BME280;60657;50.122;14.468;2022-12-18T11:10:56;100164.82702362572;;;-4.210727092393377;81.56008239871824
71642;BME280;60657;50.122;14.468;2022-12-18T11:14:05;100161.7845359639;;;-4.127946898603803;81.35027084763867
71642;BME280;60657;50.122;14.468;2022-12-18T11:17:25;100166.53275207011;;;-4.109254596780346;80.87151903562982
71642;BME280;60657;50.122;14.468;2022-12-18T11:20:39;100162.27531791013;;;-4.082551308461127;80.6521705958648
71642;BME280;60657;50.122;14.468;2022-12-18T11:23:47;100159.11134992467;;;-3.9971007858396277;81.02792401007096